sensor_id;sensor_type;location;lat;lon;timestamp;P1;P4;P2;P0;N10;N4;N25;N1;N05;TS
67700;SPS30;55380;54.156;18.708;2023-04-24T00:00:00;22.3;;22.3;21.1;;;;;;
67700;SPS30;55380;54.156;18.708;2023-04-24T00:02:00;23.4;;23.4;22.1;;;;;;
67700;SPS30;55380;54.156;18.708;2023-04-24T00:04:00;25.1;;25.0;23.6;;;;;;
67700;SPS30;55380;54.156;18.708;2023-04-24T00:06:00;23.9;;23.9;22.6;;;;;;
67700;SPS30;55380;54.156;18.708;2023-04-24T00:08:00;23.3;;23.3;22.0;;;;;;
67700;SPS30;55380;54.156;18.708;2023-04-24T00:10:00;22.7;;22.7;21.5;;;;;;
67700;SPS30;55380;54.156;18.708;2023-04-24T00:12:00;23.2;;23.2;22.0;;;;;;
67700;SPS30;55380;54.156;18.708;2023-04-24T00:14:00;23.8;;23.8;22.5;;;;;;
67700;SPS30;55380;54.156;18.708;2023-04-24T00:16:00;24.0;;24.0;22.7;;;;;;
67700;SPS30;55380;54.156;18.708;2023-04-24T00:18:00;23.3;;23.3;22.0;;;;;;
67700;SPS30;55380;54.156;18.708;2023-04-24T00:20:00;23.4;;23.4;22.1;;;;;;
67700;SPS30;55380;54.156;18.708;2023-04-24T00:22:00;24.1;;24.1;22.8;;;;;;
67700;SPS30;55380;54.156;18.708;2023-04-24T00:24:00;23.9;;23.9;22.6;;;;;;
67700;SPS30;55380;54.156;18.708;2023-04-24T00:26:00;23.8;;23.7;22.4;;;;;;
67700;SPS30;55380;54.156;18.708;2023-04-24T00:28:00;23.5;;23.5;22.2;;;;;;
67700;SPS30;55380;54.156;18.708;2023-04-24T00:30:00;23.6;;23.5;22.3;;;;;;
67700;SPS30;55380;54.156;18.708;2023-04-24T00:32:00;24.0;;23.9;22.5;;;;;;
67700;SPS30;55380;54.156;18.708;2023-04-24T00:34:00;24.4;;24.4;23.1;;;;;;
67700;SPS30;55380;54.156;18.708;2023-04-24T00:36:00;24.6;;24.5;23.1;;;;;;
67700;SPS30;55380;54.156;18.708;2023-04-24T00:38:00;23.8;;23.8;22.5;;;;;;
67700;SPS30;55380;54.156;18.708;2023-04-24T00:40:00;25.3;;25.3;23.8;;;;;;
67700;SPS30;55380;54.156;18.708;2023-04-24T00:42:00;25.1;;25.0;23.6;;;;;;
67700;SPS30;55380;54.156;18.708;2023-04-24T00:44:00;25.2;;25.2;23.8;;;;;;
67700;SPS30;55380;54.156;18.708;2023-04-24T00:46:00;26.4;;26.4;24.9;;;;;;
67700;SPS30;55380;54.156;18.708;2023-04-24T00:48:00;28.3;;28.0;26.2;;;;;;
67700;SPS30;55380;54.156;18.708;2023-04-24T00:50:01;28.0;;28.0;26.4;;;;;;
67700;SPS30;55380;54.156;18.708;2023-04-24T00:52:00;27.9;;27.8;26.3;;;;;;
67700;SPS30;55380;54.156;18.708;2023-04-24T00:54:00;26.2;;26.2;24.8;;;;;;
67700;SPS30;55380;54.156;18.708;2023-04-24T00:56:00;27.1;;26.9;25.2;;;;;;
67700;SPS30;55380;54.156;18.708;2023-04-24T00:58:00;26.4;;26.3;24.8;;;;;;
67700;SPS30;55380;54.156;18.708;2023-04-24T01:00:00;26.2;;26.2;24.7;;;;;;
67700;SPS30;55380;54.156;18.708;2023-04-24T01:02:00;26.0;;26.0;24.5;;;;;;
67700;SPS30;55380;54.156;18.708;2023-04-24T01:04:00;24.4;;24.4;23.1;;;;;;
67700;SPS30;55380;54.156;18.708;2023-04-24T01:06:00;24.9;;24.9;23.5;;;;;;
67700;SPS30;55380;54.156;18.708;2023-04-24T01:08:00;25.4;;25.4;24.0;;;;;;
67700;SPS30;55380;54.156;18.708;2023-04-24T01:10:00;25.7;;25.6;24.2;;;;;;
67700;SPS30;55380;54.156;18.708;2023-04-24T01:12:00;26.3;;26.3;24.8;;;;;;
67700;SPS30;55380;54.156;18.708;2023-04-24T01:14:00;25.9;;25.9;24.5;;;;;;
67700;SPS30;55380;54.156;18.708;2023-04-24T01:16:00;26.1;;26.1;24.6;;;;;;
67700;SPS30;55380;54.156;18.708;2023-04-24T01:18:00;26.1;;25.8;24.1;;;;;;
67700;SPS30;55380;54.156;18.708;2023-04-24T01:20:00;24.8;;24.7;23.4;;;;;;
67700;SPS30;55380;54.156;18.708;2023-04-24T01:22:01;24.6;;24.6;23.2;;;;;;
67700;SPS30;55380;54.156;18.708;2023-04-24T01:24:00;24.9;;24.9;23.5;;;;;;
67700;SPS30;55380;54.156;18.708;2023-04-24T01:26:00;25.2;;25.1;23.5;;;;;;
67700;SPS30;55380;54.156;18.708;2023-04-24T01:28:00;23.8;;23.8;22.5;;;;;;
67700;SPS30;55380;54.156;18.708;2023-04-24T01:30:00;24.9;;24.6;23.0;;;;;;
67700;SPS30;55380;54.156;18.708;2023-04-24T01:32:00;24.7;;24.5;22.9;;;;;;
67700;SPS30;55380;54.156;18.708;2023-04-24T01:34:00;22.8;;22.7;21.3;;;;;;
67700;SPS30;55380;54.156;18.708;2023-04-24T01:36:00;23.0;;22.9;21.5;;;;;;
67700;SPS30;55380;54.156;18.708;2023-04-24T01:38:00;21.8;;21.8;20.5;;;;;;
67700;SPS30;55380;54.156;18.708;2023-04-24T01:40:00;23.2;;23.2;21.9;;;;;;
67700;SPS30;55380;54.156;18.708;2023-04-24T01:42:00;22.4;;22.3;20.9;;;;;;
67700;SPS30;55380;54.156;18.708;2023-04-24T01:44:00;22.8;;22.5;21.0;;;;;;
67700;SPS30;55380;54.156;18.708;2023-04-24T01:46:00;22.3;;22.2;20.8;;;;;;
67700;SPS30;55380;54.156;18.708;2023-04-24T01:48:00;22.1;;21.9;20.6;;;;;;
67700;SPS30;55380;54.156;18.708;2023-04-24T01:50:00;23.7;;23.5;21.9;;;;;;
67700;SPS30;55380;54.156;18.708;2023-04-24T01:52:00;23.3;;22.9;21.3;;;;;;
67700;SPS30;55380;54.156;18.708;2023-04-24T01:54:00;22.9;;22.8;21.4;;;;;;
67700;SPS30;55380;54.156;18.708;2023-04-24T01:56:00;24.0;;23.7;22.1;;;;;;
67700;SPS30;55380;54.156;18.708;2023-04-24T01:58:00;22.5;;22.1;20.5;;;;;;
67700;SPS30;55380;54.156;18.708;2023-04-24T02:00:00;22.8;;22.4;20.8;;;;;;
67700;SPS30;55380;54.156;18.708;2023-04-24T02:02:00;22.7;;22.3;20.8;;;;;;
67700;SPS30;55380;54.156;18.708;2023-04-24T02:04:00;22.2;;22.1;20.8;;;;;;
67700;SPS30;55380;54.156;18.708;2023-04-24T02:06:00;23.2;;22.7;20.9;;;;;;
67700;SPS30;55380;54.156;18.708;2023-04-24T02:08:00;21.8;;21.5;20.1;;;;;;
67700;SPS30;55380;54.156;18.708;2023-04-24T02:10:00;21.9;;21.4;19.7;;;;;;
67700;SPS30;55380;54.156;18.708;2023-04-24T02:12:00;23.1;;22.5;20.8;;;;;;
67700;SPS30;55380;54.156;18.708;2023-04-24T02:14:00;22.4;;21.9;20.1;;;;;;
67700;SPS30;55380;54.156;18.708;2023-04-24T02:16:00;22.2;;21.7;20.0;;;;;;
67700;SPS30;55380;54.156;18.708;2023-04-24T02:18:00;21.4;;20.9;19.4;;;;;;
67700;SPS30;55380;54.156;18.708;2023-04-24T02:20:00;22.0;;21.2;19.2;;;;;;
67700;SPS30;55380;54.156;18.708;2023-04-24T02:22:00;20.6;;20.0;18.3;;;;;;
67700;SPS30;55380;54.156;18.708;2023-04-24T02:24:00;20.5;;20.1;18.6;;;;;;
67700;SPS30;55380;54.156;18.708;2023-04-24T02:26:00;22.0;;21.3;19.4;;;;;;
67700;SPS30;55380;54.156;18.708;2023-04-24T02:28:00;20.1;;19.6;18.1;;;;;;
67700;SPS30;55380;54.156;18.708;2023-04-24T02:30:00;20.1;;19.6;18.1;;;;;;
67700;SPS30;55380;54.156;18.708;2023-04-24T02:32:00;22.1;;20.8;18.4;;;;;;
67700;SPS30;55380;54.156;18.708;2023-04-24T02:34:00;20.2;;19.5;17.7;;;;;;
67700;SPS30;55380;54.156;18.708;2023-04-24T02:36:00;19.1;;18.7;17.3;;;;;;
67700;SPS30;55380;54.156;18.708;2023-04-24T02:38:00;18.3;;17.8;16.2;;;;;;
67700;SPS30;55380;54.156;18.708;2023-04-24T02:40:00;19.1;;18.2;16.4;;;;;;
67700;SPS30;55380;54.156;18.708;2023-04-24T02:42:00;18.7;;18.0;16.4;;;;;;
67700;SPS30;55380;54.156;18.708;2023-04-24T02:44:00;17.6;;17.4;16.2;;;;;;
67700;SPS30;55380;54.156;18.708;2023-04-24T02:46:00;17.7;;17.3;16.1;;;;;;
67700;SPS30;55380;54.156;18.708;2023-04-24T02:48:00;17.1;;16.8;15.5;;;;;;
67700;SPS30;55380;54.156;18.708;2023-04-24T02:50:00;17.4;;17.0;15.6;;;;;;
67700;SPS30;55380;54.156;18.708;2023-04-24T02:52:00;17.4;;17.0;15.6;;;;;;
67700;SPS30;55380;54.156;18.708;2023-04-24T02:54:00;17.1;;16.4;14.8;;;;;;
67700;SPS30;55380;54.156;18.708;2023-04-24T02:56:00;16.8;;16.3;14.9;;;;;;
67700;SPS30;55380;54.156;18.708;2023-04-24T02:58:00;16.0;;15.6;14.4;;;;;;
67700;SPS30;55380;54.156;18.708;2023-04-24T03:00:00;17.5;;16.8;15.1;;;;;;
67700;SPS30;55380;54.156;18.708;2023-04-24T03:02:00;16.7;;15.9;14.2;;;;;;
67700;SPS30;55380;54.156;18.708;2023-04-24T03:04:00;16.6;;16.2;14.8;;;;;;
67700;SPS30;55380;54.156;18.708;2023-04-24T03:06:00;15.5;;15.0;13.7;;;;;;
67700;SPS30;55380;54.156;18.708;2023-04-24T03:08:00;16.4;;15.8;14.3;;;;;;
67700;SPS30;55380;54.156;18.708;2023-04-24T03:10:00;15.5;;15.1;14.0;;;;;;
67700;SPS30;55380;54.156;18.708;2023-04-24T03:12:00;14.8;;14.4;13.2;;;;;;
67700;SPS30;55380;54.156;18.708;2023-04-24T03:14:00;15.7;;15.2;13.9;;;;;;
67700;SPS30;55380;54.156;18.708;2023-04-24T03:16:00;14.3;;14.0;13.0;;;;;;
67700;SPS30;55380;54.156;18.708;2023-04-24T03:18:00;15.0;;14.7;13.6;;;;;;
67700;SPS30;55380;54.156;18.708;2023-04-24T03:20:00;14.9;;14.6;13.6;;;;;;
67700;SPS30;55380;54.156;18.708;2023-04-24T03:22:01;14.8;;14.5;13.5;;;;;;
67700;SPS30;55380;54.156;18.708;2023-04-24T03:24:00;15.2;;14.7;13.5;;;;;;
67700;SPS30;55380;54.156;18.708;2023-04-24T03:26:00;16.1;;15.7;14.4;;;;;;
67700;SPS30;55380;54.156;18.708;2023-04-24T03:28:00;14.2;;14.1;13.2;;;;;;
67700;SPS30;55380;54.156;18.708;2023-04-24T03:30:00;14.7;;14.5;13.6;;;;;;
67700;SPS30;55380;54.156;18.708;2023-04-24T03:32:00;14.7;;14.4;13.4;;;;;;
67700;SPS30;55380;54.156;18.708;2023-04-24T03:34:00;14.5;;14.3;13.3;;;;;;
67700;SPS30;55380;54.156;18.708;2023-04-24T03:36:00;14.9;;14.8;13.9;;;;;;
67700;SPS30;55380;54.156;18.708;2023-04-24T03:38:00;14.8;;14.7;13.7;;;;;;
67700;SPS30;55380;54.156;18.708;2023-04-24T03:40:00;14.8;;14.5;13.4;;;;;;
67700;SPS30;55380;54.156;18.708;2023-04-24T03:42:00;14.3;;14.1;13.1;;;;;;
67700;SPS30;55380;54.156;18.708;2023-04-24T03:44:00;14.8;;14.4;13.2;;;;;;
67700;SPS30;55380;54.156;18.708;2023-04-24T03:46:00;14.9;;14.7;13.8;;;;;;
67700;SPS30;55380;54.156;18.708;2023-04-24T03:48:00;14.0;;13.8;12.9;;;;;;
67700;SPS30;55380;54.156;18.708;2023-04-24T03:50:00;15.1;;14.9;13.9;;;;;;
67700;SPS30;55380;54.156;18.708;2023-04-24T03:52:00;14.1;;14.1;13.3;;;;;;
67700;SPS30;55380;54.156;18.708;2023-04-24T03:54:00;14.6;;14.4;13.5;;;;;;
67700;SPS30;55380;54.156;18.708;2023-04-24T03:56:00;14.8;;14.5;13.4;;;;;;
67700;SPS30;55380;54.156;18.708;2023-04-24T03:58:00;14.5;;14.2;13.1;;;;;;
67700;SPS30;55380;54.156;18.708;2023-04-24T04:00:00;13.7;;13.4;12.4;;;;;;
67700;SPS30;55380;54.156;18.708;2023-04-24T04:02:00;14.0;;13.7;12.7;;;;;;
67700;SPS30;55380;54.156;18.708;2023-04-24T04:04:00;13.4;;13.1;12.2;;;;;;
67700;SPS30;55380;54.156;18.708;2023-04-24T04:06:00;13.5;;13.4;12.6;;;;;;
67700;SPS30;55380;54.156;18.708;2023-04-24T04:08:00;13.5;;13.3;12.4;;;;;;
67700;SPS30;55380;54.156;18.708;2023-04-24T04:10:00;12.8;;12.8;12.0;;;;;;
67700;SPS30;55380;54.156;18.708;2023-04-24T04:12:00;13.0;;12.9;12.0;;;;;;
67700;SPS30;55380;54.156;18.708;2023-04-24T04:14:00;12.8;;12.7;11.9;;;;;;
67700;SPS30;55380;54.156;18.708;2023-04-24T04:16:00;13.6;;13.4;12.5;;;;;;
67700;SPS30;55380;54.156;18.708;2023-04-24T04:18:00;13.7;;13.4;12.5;;;;;;
67700;SPS30;55380;54.156;18.708;2023-04-24T04:20:00;12.9;;12.8;12.0;;;;;;
67700;SPS30;55380;54.156;18.708;2023-04-24T04:22:00;13.0;;12.9;12.1;;;;;;
67700;SPS30;55380;54.156;18.708;2023-04-24T04:24:00;13.3;;13.2;12.3;;;;;;
67700;SPS30;55380;54.156;18.708;2023-04-24T04:26:00;14.9;;14.6;13.6;;;;;;
67700;SPS30;55380;54.156;18.708;2023-04-24T04:28:00;15.8;;15.7;14.8;;;;;;
67700;SPS30;55380;54.156;18.708;2023-04-24T04:30:00;15.1;;15.1;14.3;;;;;;
67700;SPS30;55380;54.156;18.708;2023-04-24T04:32:00;14.1;;14.1;13.3;;;;;;
67700;SPS30;55380;54.156;18.708;2023-04-24T04:34:00;15.1;;15.0;14.1;;;;;;
67700;SPS30;55380;54.156;18.708;2023-04-24T04:36:00;14.9;;14.8;13.9;;;;;;
67700;SPS30;55380;54.156;18.708;2023-04-24T04:38:00;16.6;;16.6;15.7;;;;;;
67700;SPS30;55380;54.156;18.708;2023-04-24T04:40:00;17.4;;17.4;16.4;;;;;;
67700;SPS30;55380;54.156;18.708;2023-04-24T04:42:00;19.7;;19.7;18.6;;;;;;
67700;SPS30;55380;54.156;18.708;2023-04-24T04:44:00;18.0;;17.9;16.9;;;;;;
67700;SPS30;55380;54.156;18.708;2023-04-24T04:46:00;20.0;;19.9;18.8;;;;;;
67700;SPS30;55380;54.156;18.708;2023-04-24T04:48:00;15.6;;15.6;14.7;;;;;;
67700;SPS30;55380;54.156;18.708;2023-04-24T04:50:00;12.9;;12.8;12.0;;;;;;
67700;SPS30;55380;54.156;18.708;2023-04-24T04:52:00;13.3;;13.2;12.3;;;;;;
67700;SPS30;55380;54.156;18.708;2023-04-24T04:54:00;13.7;;13.5;12.7;;;;;;
67700;SPS30;55380;54.156;18.708;2023-04-24T04:56:00;13.6;;13.4;12.4;;;;;;
67700;SPS30;55380;54.156;18.708;2023-04-24T04:58:00;13.6;;13.3;12.4;;;;;;
67700;SPS30;55380;54.156;18.708;2023-04-24T05:00:00;14.5;;14.3;13.4;;;;;;
67700;SPS30;55380;54.156;18.708;2023-04-24T05:02:00;14.2;;14.1;13.3;;;;;;
67700;SPS30;55380;54.156;18.708;2023-04-24T05:04:00;15.0;;14.6;13.4;;;;;;
67700;SPS30;55380;54.156;18.708;2023-04-24T05:06:00;14.2;;14.1;13.3;;;;;;
67700;SPS30;55380;54.156;18.708;2023-04-24T05:08:00;13.6;;13.4;12.5;;;;;;
67700;SPS30;55380;54.156;18.708;2023-04-24T05:10:00;13.9;;13.7;12.7;;;;;;
67700;SPS30;55380;54.156;18.708;2023-04-24T05:12:00;13.5;;13.3;12.5;;;;;;
67700;SPS30;55380;54.156;18.708;2023-04-24T05:14:00;14.2;;14.0;12.9;;;;;;
67700;SPS30;55380;54.156;18.708;2023-04-24T05:16:00;15.7;;15.5;14.5;;;;;;
67700;SPS30;55380;54.156;18.708;2023-04-24T05:18:00;15.5;;15.4;14.4;;;;;;
67700;SPS30;55380;54.156;18.708;2023-04-24T05:20:00;16.4;;16.1;15.0;;;;;;
67700;SPS30;55380;54.156;18.708;2023-04-24T05:22:00;18.1;;17.8;16.4;;;;;;
67700;SPS30;55380;54.156;18.708;2023-04-24T05:24:00;17.2;;16.9;15.7;;;;;;
67700;SPS30;55380;54.156;18.708;2023-04-24T05:26:00;15.4;;15.1;14.0;;;;;;
67700;SPS30;55380;54.156;18.708;2023-04-24T05:28:00;15.4;;15.3;14.4;;;;;;
67700;SPS30;55380;54.156;18.708;2023-04-24T05:30:00;16.5;;16.4;15.3;;;;;;
67700;SPS30;55380;54.156;18.708;2023-04-24T05:32:00;16.4;;16.2;15.2;;;;;;
67700;SPS30;55380;54.156;18.708;2023-04-24T05:34:00;16.2;;16.0;15.0;;;;;;
67700;SPS30;55380;54.156;18.708;2023-04-24T05:36:00;17.1;;16.9;15.8;;;;;;
67700;SPS30;55380;54.156;18.708;2023-04-24T05:38:00;16.8;;16.6;15.5;;;;;;
67700;SPS30;55380;54.156;18.708;2023-04-24T05:40:00;17.1;;16.8;15.6;;;;;;
67700;SPS30;55380;54.156;18.708;2023-04-24T05:42:00;16.9;;16.7;15.7;;;;;;
67700;SPS30;55380;54.156;18.708;2023-04-24T05:44:00;18.1;;17.5;16.0;;;;;;
67700;SPS30;55380;54.156;18.708;2023-04-24T05:46:00;17.7;;17.5;16.3;;;;;;
67700;SPS30;55380;54.156;18.708;2023-04-24T05:48:00;17.3;;17.1;16.0;;;;;;
67700;SPS30;55380;54.156;18.708;2023-04-24T05:50:00;17.8;;17.8;16.7;;;;;;
67700;SPS30;55380;54.156;18.708;2023-04-24T05:52:00;17.6;;17.5;16.5;;;;;;
67700;SPS30;55380;54.156;18.708;2023-04-24T05:54:00;17.5;;17.2;16.0;;;;;;
67700;SPS30;55380;54.156;18.708;2023-04-24T05:56:00;17.0;;16.8;15.6;;;;;;
67700;SPS30;55380;54.156;18.708;2023-04-24T05:58:00;19.9;;19.7;18.3;;;;;;
67700;SPS30;55380;54.156;18.708;2023-04-24T06:00:00;20.7;;19.8;17.9;;;;;;
67700;SPS30;55380;54.156;18.708;2023-04-24T06:02:00;20.2;;19.7;18.2;;;;;;
67700;SPS30;55380;54.156;18.708;2023-04-24T06:04:00;20.4;;20.2;18.9;;;;;;
67700;SPS30;55380;54.156;18.708;2023-04-24T06:06:00;19.4;;18.9;17.4;;;;;;
67700;SPS30;55380;54.156;18.708;2023-04-24T06:08:00;20.3;;19.8;18.2;;;;;;
67700;SPS30;55380;54.156;18.708;2023-04-24T06:10:00;21.2;;20.6;19.0;;;;;;
67700;SPS30;55380;54.156;18.708;2023-04-24T06:12:00;17.8;;17.4;16.1;;;;;;
67700;SPS30;55380;54.156;18.708;2023-04-24T06:14:00;17.9;;17.5;16.2;;;;;;
67700;SPS30;55380;54.156;18.708;2023-04-24T06:16:00;19.6;;19.3;17.9;;;;;;
67700;SPS30;55380;54.156;18.708;2023-04-24T06:18:00;18.5;;18.1;16.8;;;;;;
67700;SPS30;55380;54.156;18.708;2023-04-24T06:20:00;18.2;;17.8;16.5;;;;;;
67700;SPS30;55380;54.156;18.708;2023-04-24T06:22:00;17.2;;17.1;16.1;;;;;;
67700;SPS30;55380;54.156;18.708;2023-04-24T06:24:00;20.1;;19.8;18.4;;;;;;
67700;SPS30;55380;54.156;18.708;2023-04-24T06:26:00;18.3;;18.1;17.0;;;;;;
67700;SPS30;55380;54.156;18.708;2023-04-24T06:28:00;19.6;;19.1;17.5;;;;;;
67700;SPS30;55380;54.156;18.708;2023-04-24T06:30:00;18.5;;18.2;16.9;;;;;;
67700;SPS30;55380;54.156;18.708;2023-04-24T06:32:00;19.1;;18.8;17.4;;;;;;
67700;SPS30;55380;54.156;18.708;2023-04-24T06:34:00;23.9;;22.5;19.9;;;;;;
67700;SPS30;55380;54.156;18.708;2023-04-24T06:36:00;21.9;;20.7;18.5;;;;;;
67700;SPS30;55380;54.156;18.708;2023-04-24T06:38:00;19.4;;18.7;16.9;;;;;;
67700;SPS30;55380;54.156;18.708;2023-04-24T06:40:00;18.8;;18.3;16.7;;;;;;
67700;SPS30;55380;54.156;18.708;2023-04-24T06:42:00;20.4;;20.0;18.6;;;;;;
67700;SPS30;55380;54.156;18.708;2023-04-24T06:44:00;23.4;;22.9;21.2;;;;;;
67700;SPS30;55380;54.156;18.708;2023-04-24T06:46:00;23.4;;22.9;21.2;;;;;;
67700;SPS30;55380;54.156;18.708;2023-04-24T06:48:00;24.7;;24.2;22.3;;;;;;
67700;SPS30;55380;54.156;18.708;2023-04-24T06:50:00;23.8;;23.0;20.9;;;;;;
67700;SPS30;55380;54.156;18.708;2023-04-24T06:52:00;20.5;;20.0;18.4;;;;;;
67700;SPS30;55380;54.156;18.708;2023-04-24T06:54:00;17.3;;17.0;15.7;;;;;;
67700;SPS30;55380;54.156;18.708;2023-04-24T06:56:00;16.7;;16.5;15.4;;;;;;
67700;SPS30;55380;54.156;18.708;2023-04-24T06:58:00;17.3;;16.9;15.6;;;;;;
67700;SPS30;55380;54.156;18.708;2023-04-24T07:00:00;18.1;;17.6;16.2;;;;;;
67700;SPS30;55380;54.156;18.708;2023-04-24T07:02:00;17.3;;17.0;15.7;;;;;;
67700;SPS30;55380;54.156;18.708;2023-04-24T07:04:00;16.5;;16.4;15.4;;;;;;
67700;SPS30;55380;54.156;18.708;2023-04-24T07:06:00;16.7;;16.6;15.5;;;;;;
67700;SPS30;55380;54.156;18.708;2023-04-24T07:08:00;16.8;;16.4;15.2;;;;;;
67700;SPS30;55380;54.156;18.708;2023-04-24T07:10:00;17.5;;17.2;16.0;;;;;;
67700;SPS30;55380;54.156;18.708;2023-04-24T07:12:00;16.8;;16.6;15.5;;;;;;
67700;SPS30;55380;54.156;18.708;2023-04-24T07:14:00;18.5;;18.0;16.6;;;;;;
67700;SPS30;55380;54.156;18.708;2023-04-24T07:16:00;18.2;;17.7;16.3;;;;;;
67700;SPS30;55380;54.156;18.708;2023-04-24T07:18:00;17.4;;17.3;16.2;;;;;;
67700;SPS30;55380;54.156;18.708;2023-04-24T07:20:00;17.7;;17.5;16.3;;;;;;
67700;SPS30;55380;54.156;18.708;2023-04-24T07:22:00;17.0;;16.7;15.5;;;;;;
67700;SPS30;55380;54.156;18.708;2023-04-24T07:24:00;17.1;;16.9;15.8;;;;;;
67700;SPS30;55380;54.156;18.708;2023-04-24T07:26:00;16.8;;16.6;15.5;;;;;;
67700;SPS30;55380;54.156;18.708;2023-04-24T07:28:00;21.2;;20.5;18.7;;;;;;
67700;SPS30;55380;54.156;18.708;2023-04-24T07:30:00;20.7;;20.3;18.9;;;;;;
67700;SPS30;55380;54.156;18.708;2023-04-24T07:32:00;17.4;;17.1;15.8;;;;;;
67700;SPS30;55380;54.156;18.708;2023-04-24T07:34:00;16.9;;16.7;15.6;;;;;;
67700;SPS30;55380;54.156;18.708;2023-04-24T07:36:00;18.5;;18.0;16.6;;;;;;
67700;SPS30;55380;54.156;18.708;2023-04-24T07:38:00;17.6;;17.4;16.2;;;;;;
67700;SPS30;55380;54.156;18.708;2023-04-24T07:40:00;18.0;;17.8;16.7;;;;;;
67700;SPS30;55380;54.156;18.708;2023-04-24T07:42:00;18.0;;17.6;16.2;;;;;;
67700;SPS30;55380;54.156;18.708;2023-04-24T07:44:00;22.1;;21.5;19.7;;;;;;
67700;SPS30;55380;54.156;18.708;2023-04-24T07:46:00;19.3;;19.1;17.8;;;;;;
67700;SPS30;55380;54.156;18.708;2023-04-24T07:48:00;19.5;;19.2;17.7;;;;;;
67700;SPS30;55380;54.156;18.708;2023-04-24T07:50:00;24.4;;23.4;21.2;;;;;;
67700;SPS30;55380;54.156;18.708;2023-04-24T07:52:00;22.4;;21.4;19.2;;;;;;
67700;SPS30;55380;54.156;18.708;2023-04-24T07:54:00;18.8;;18.4;17.0;;;;;;
67700;SPS30;55380;54.156;18.708;2023-04-24T07:56:00;19.1;;18.6;17.2;;;;;;
67700;SPS30;55380;54.156;18.708;2023-04-24T07:58:00;18.8;;18.5;17.2;;;;;;
67700;SPS30;55380;54.156;18.708;2023-04-24T08:00:00;24.0;;23.1;21.0;;;;;;
67700;SPS30;55380;54.156;18.708;2023-04-24T08:02:00;19.9;;19.4;17.8;;;;;;
67700;SPS30;55380;54.156;18.708;2023-04-24T08:04:00;19.1;;18.8;17.4;;;;;;
67700;SPS30;55380;54.156;18.708;2023-04-24T08:06:00;18.7;;18.3;16.9;;;;;;
67700;SPS30;55380;54.156;18.708;2023-04-24T08:08:00;19.4;;18.9;17.3;;;;;;
67700;SPS30;55380;54.156;18.708;2023-04-24T08:10:00;19.0;;18.7;17.3;;;;;;
67700;SPS30;55380;54.156;18.708;2023-04-24T08:12:00;18.6;;18.5;17.3;;;;;;
67700;SPS30;55380;54.156;18.708;2023-04-24T08:14:00;18.9;;18.7;17.4;;;;;;
67700;SPS30;55380;54.156;18.708;2023-04-24T08:16:00;19.9;;19.5;18.0;;;;;;
67700;SPS30;55380;54.156;18.708;2023-04-24T08:18:00;19.8;;19.4;18.0;;;;;;
67700;SPS30;55380;54.156;18.708;2023-04-24T08:20:00;20.2;;19.8;18.4;;;;;;
67700;SPS30;55380;54.156;18.708;2023-04-24T08:22:00;20.2;;19.9;18.5;;;;;;
67700;SPS30;55380;54.156;18.708;2023-04-24T08:24:00;21.0;;20.4;18.8;;;;;;
67700;SPS30;55380;54.156;18.708;2023-04-24T08:26:00;20.7;;20.2;18.7;;;;;;
67700;SPS30;55380;54.156;18.708;2023-04-24T08:28:01;20.3;;19.8;18.1;;;;;;
67700;SPS30;55380;54.156;18.708;2023-04-24T08:30:00;20.4;;19.9;18.4;;;;;;
67700;SPS30;55380;54.156;18.708;2023-04-24T08:32:00;20.1;;19.8;18.5;;;;;;
67700;SPS30;55380;54.156;18.708;2023-04-24T08:34:00;20.2;;19.8;18.3;;;;;;
67700;SPS30;55380;54.156;18.708;2023-04-24T08:36:00;20.6;;20.2;18.6;;;;;;
67700;SPS30;55380;54.156;18.708;2023-04-24T08:38:00;20.5;;20.1;18.7;;;;;;
67700;SPS30;55380;54.156;18.708;2023-04-24T08:40:00;21.2;;20.9;19.4;;;;;;
67700;SPS30;55380;54.156;18.708;2023-04-24T08:42:00;20.7;;20.3;18.8;;;;;;
67700;SPS30;55380;54.156;18.708;2023-04-24T08:44:00;20.6;;20.3;18.9;;;;;;
67700;SPS30;55380;54.156;18.708;2023-04-24T08:46:00;21.0;;20.6;19.1;;;;;;
67700;SPS30;55380;54.156;18.708;2023-04-24T08:48:00;21.2;;20.7;19.2;;;;;;
67700;SPS30;55380;54.156;18.708;2023-04-24T08:50:00;20.1;;19.9;18.7;;;;;;
67700;SPS30;55380;54.156;18.708;2023-04-24T08:52:00;20.3;;20.1;18.9;;;;;;
67700;SPS30;55380;54.156;18.708;2023-04-24T08:54:00;21.2;;20.9;19.5;;;;;;
67700;SPS30;55380;54.156;18.708;2023-04-24T08:56:00;20.7;;20.3;18.8;;;;;;
67700;SPS30;55380;54.156;18.708;2023-04-24T08:58:00;22.1;;21.4;19.6;;;;;;
67700;SPS30;55380;54.156;18.708;2023-04-24T09:00:00;21.2;;20.9;19.4;;;;;;
67700;SPS30;55380;54.156;18.708;2023-04-24T09:02:00;24.8;;24.7;23.3;;;;;;
67700;SPS30;55380;54.156;18.708;2023-04-24T09:04:01;22.1;;21.9;20.5;;;;;;
67700;SPS30;55380;54.156;18.708;2023-04-24T09:06:00;21.3;;21.1;19.7;;;;;;
67700;SPS30;55380;54.156;18.708;2023-04-24T09:08:00;24.6;;24.3;22.7;;;;;;
67700;SPS30;55380;54.156;18.708;2023-04-24T09:10:00;22.3;;21.9;20.3;;;;;;
67700;SPS30;55380;54.156;18.708;2023-04-24T09:12:00;22.4;;21.9;20.3;;;;;;
67700;SPS30;55380;54.156;18.708;2023-04-24T09:14:00;22.5;;22.2;20.7;;;;;;
67700;SPS30;55380;54.156;18.708;2023-04-24T09:16:00;22.2;;22.1;20.9;;;;;;
67700;SPS30;55380;54.156;18.708;2023-04-24T09:18:00;22.0;;21.8;20.3;;;;;;
67700;SPS30;55380;54.156;18.708;2023-04-24T09:20:00;21.2;;21.0;19.7;;;;;;
67700;SPS30;55380;54.156;18.708;2023-04-24T09:22:00;21.7;;21.6;20.2;;;;;;
67700;SPS30;55380;54.156;18.708;2023-04-24T09:24:00;21.6;;21.5;20.3;;;;;;
67700;SPS30;55380;54.156;18.708;2023-04-24T09:26:00;21.2;;21.1;19.8;;;;;;
67700;SPS30;55380;54.156;18.708;2023-04-24T09:28:00;21.6;;21.5;20.3;;;;;;
67700;SPS30;55380;54.156;18.708;2023-04-24T09:30:00;21.9;;21.7;20.3;;;;;;
67700;SPS30;55380;54.156;18.708;2023-04-24T09:32:04;22.2;;22.0;20.7;;;;;;
67700;SPS30;55380;54.156;18.708;2023-04-24T09:34:01;22.1;;21.9;20.6;;;;;;
67700;SPS30;55380;54.156;18.708;2023-04-24T09:36:00;22.6;;22.3;20.7;;;;;;
67700;SPS30;55380;54.156;18.708;2023-04-24T09:38:00;23.2;;23.1;21.7;;;;;;
67700;SPS30;55380;54.156;18.708;2023-04-24T09:40:07;22.4;;22.4;21.1;;;;;;
67700;SPS30;55380;54.156;18.708;2023-04-24T09:42:00;22.8;;22.7;21.3;;;;;;
67700;SPS30;55380;54.156;18.708;2023-04-24T09:44:10;22.1;;22.0;20.8;;;;;;
67700;SPS30;55380;54.156;18.708;2023-04-24T09:46:04;23.5;;23.3;21.9;;;;;;
67700;SPS30;55380;54.156;18.708;2023-04-24T09:48:00;23.9;;23.6;22.1;;;;;;
67700;SPS30;55380;54.156;18.708;2023-04-24T09:50:01;22.8;;22.7;21.5;;;;;;
67700;SPS30;55380;54.156;18.708;2023-04-24T09:52:03;23.2;;23.1;21.7;;;;;;
67700;SPS30;55380;54.156;18.708;2023-04-24T09:54:00;22.9;;22.9;21.5;;;;;;
67700;SPS30;55380;54.156;18.708;2023-04-24T09:56:06;22.4;;22.3;21.1;;;;;;
67700;SPS30;55380;54.156;18.708;2023-04-24T09:58:00;22.5;;22.4;21.1;;;;;;
67700;SPS30;55380;54.156;18.708;2023-04-24T10:00:00;23.3;;23.1;21.6;;;;;;
67700;SPS30;55380;54.156;18.708;2023-04-24T10:02:00;23.8;;23.5;21.9;;;;;;
67700;SPS30;55380;54.156;18.708;2023-04-24T10:04:00;24.0;;23.7;22.1;;;;;;
67700;SPS30;55380;54.156;18.708;2023-04-24T10:06:00;23.8;;23.6;22.1;;;;;;
67700;SPS30;55380;54.156;18.708;2023-04-24T10:08:01;24.7;;24.5;23.0;;;;;;
67700;SPS30;55380;54.156;18.708;2023-04-24T10:10:00;23.9;;23.6;22.0;;;;;;
67700;SPS30;55380;54.156;18.708;2023-04-24T10:12:00;23.4;;23.1;21.5;;;;;;
67700;SPS30;55380;54.156;18.708;2023-04-24T10:14:00;23.2;;23.1;21.8;;;;;;
67700;SPS30;55380;54.156;18.708;2023-04-24T10:16:00;24.0;;23.9;22.5;;;;;;
67700;SPS30;55380;54.156;18.708;2023-04-24T10:18:00;23.8;;23.5;21.9;;;;;;
67700;SPS30;55380;54.156;18.708;2023-04-24T10:20:00;23.8;;23.5;22.0;;;;;;
67700;SPS30;55380;54.156;18.708;2023-04-24T10:22:00;23.2;;23.1;21.7;;;;;;
67700;SPS30;55380;54.156;18.708;2023-04-24T10:24:00;23.5;;23.2;21.7;;;;;;
67700;SPS30;55380;54.156;18.708;2023-04-24T10:26:00;22.6;;22.5;21.1;;;;;;
67700;SPS30;55380;54.156;18.708;2023-04-24T10:28:00;22.5;;22.4;21.1;;;;;;
67700;SPS30;55380;54.156;18.708;2023-04-24T10:30:00;23.0;;22.9;21.6;;;;;;
67700;SPS30;55380;54.156;18.708;2023-04-24T10:32:00;22.2;;22.1;20.8;;;;;;
67700;SPS30;55380;54.156;18.708;2023-04-24T10:34:00;22.9;;22.8;21.4;;;;;;
67700;SPS30;55380;54.156;18.708;2023-04-24T10:36:00;22.0;;21.9;20.7;;;;;;
67700;SPS30;55380;54.156;18.708;2023-04-24T10:38:03;22.0;;22.0;20.8;;;;;;
67700;SPS30;55380;54.156;18.708;2023-04-24T10:40:00;22.4;;22.3;21.1;;;;;;
67700;SPS30;55380;54.156;18.708;2023-04-24T10:42:00;22.5;;22.5;21.2;;;;;;
67700;SPS30;55380;54.156;18.708;2023-04-24T10:44:08;23.8;;23.5;22.0;;;;;;